Time;durP1;ratioP1;P1;durP2;ratioP2;P2;SDS_P1;SDS_P2;PMS_P1;PMS_P2;Temp;Humidity;BMP_temperature;BMP_pressure;BME280_temperature;BME280_humidity;BME280_pressure;Samples;Min_cycle;Max_cycle;Signal;HPM_P1;HPM_P2
2023/01/17 00:02:54;;;;;;;7.40;6.80;;;;;;;21.25;32.32;93756.75;6102835;28;104656;-67
2023/01/17 00:12:47;;;;;;;7.20;6.70;;;;;;;21.17;32.33;93745.09;6127296;28;104046;-68
2023/01/17 00:15:50;;;;;;;6.47;5.97;;;;;;;21.24;32.33;93718.72;6130385;28;103761;-69
2023/01/17 01:34:47;;;;;;;5.63;5.23;;;;;;;21.17;32.38;93753.88;6110483;28;105090;-67
2023/01/17 01:37:50;;;;;;;5.40;5.00;;;;;;;21.20;31.84;93707.19;6130689;28;103806;-68
2023/01/17 01:40:56;;;;;;;5.60;5.20;;;;;;;21.18;32.37;93734.13;6126705;28;103253;-67
2023/01/17 01:44:01;;;;;;;5.43;5.03;;;;;;;21.20;32.24;93680.59;6118674;28;103743;-69
2023/01/17 01:47:04;;;;;;;5.47;5.07;;;;;;;21.19;32.19;93681.72;6136659;28;103875;-69
2023/01/17 01:50:09;;;;;;;5.80;5.37;;;;;;;21.18;32.19;93674.84;6121655;28;103776;-69
2023/01/17 01:53:12;;;;;;;5.17;4.77;;;;;;;21.14;32.01;93695.22;6130448;28;103826;-69
2023/01/17 01:56:16;;;;;;;5.20;4.80;;;;;;;21.20;32.33;93686.69;6107382;28;104711;-69
2023/01/17 01:59:25;;;;;;;5.13;4.73;;;;;;;21.20;32.09;93715.97;6113039;28;103676;-69
2023/01/17 02:02:30;;;;;;;6.13;5.63;;;;;;;21.19;32.18;93681.72;6133067;28;103971;-69
2023/01/17 02:05:35;;;;;;;5.40;5.00;;;;;;;21.19;32.15;93669.19;6131712;28;103710;-69
2023/01/17 02:08:38;;;;;;;4.67;4.37;;;;;;;21.18;32.07;93694.25;6106312;28;104789;-67
2023/01/17 02:11:46;;;;;;;4.80;4.40;;;;;;;21.13;31.96;93648.44;6116051;28;103233;-68
2023/01/17 02:14:51;;;;;;;4.87;4.40;;;;;;;20.85;32.43;93645.66;6122547;28;104799;-68
2023/01/17 02:18:02;;;;;;;5.00;4.60;;;;;;;21.19;32.11;93663.09;6106963;28;103949;-68
2023/01/17 02:21:24;;;;;;;4.90;4.57;;;;;;;21.19;32.07;93666.53;6118642;28;108397;-68
2023/01/17 02:25:06;;;;;;;4.93;4.57;;;;;;;21.19;31.90;93665.75;6130874;28;104176;-69
2023/01/17 02:28:27;;;;;;;5.50;5.10;;;;;;;21.18;32.21;93664.97;6115447;28;104542;-69
2023/01/17 02:31:36;;;;;;;5.37;4.97;;;;;;;21.13;32.14;93648.44;6118178;28;103950;-69
2023/01/17 02:34:49;;;;;;;4.37;4.07;;;;;;;21.19;32.31;93690.47;6094329;28;104843;-69
2023/01/17 02:38:03;;;;;;;4.70;4.40;;;;;;;21.19;31.84;93660.44;6114650;28;103754;-66
2023/01/17 02:41:11;;;;;;;4.77;4.37;;;;;;;21.19;32.21;93647.13;6109861;28;103944;-69
2023/01/17 02:44:18;;;;;;;4.60;4.30;;;;;;;21.19;32.31;93668.41;6113700;28;103861;-69
2023/01/17 02:47:25;;;;;;;5.03;4.63;;;;;;;21.20;32.26;93677.94;6107747;28;103237;-69
2023/01/17 02:50:37;;;;;;;5.27;4.87;;;;;;;21.21;31.84;93680.25;6117507;28;103629;-66
2023/01/17 02:53:54;;;;;;;4.70;4.40;;;;;;;21.18;32.12;93649.00;6104394;28;103930;-65
2023/01/17 02:57:11;;;;;;;4.63;4.23;;;;;;;21.19;31.94;93655.88;6129039;28;103696;-66
2023/01/17 03:00:22;;;;;;;4.37;4.07;;;;;;;21.19;32.07;93649.78;6115084;28;103651;-66
2023/01/17 03:03:35;;;;;;;4.73;4.33;;;;;;;21.11;32.15;93627.50;6114074;28;104870;-64
2023/01/17 03:06:44;;;;;;;4.60;4.20;;;;;;;21.19;31.99;93634.59;6118970;28;103650;-63
2023/01/17 03:09:52;;;;;;;5.03;4.63;;;;;;;21.18;31.82;93642.91;6134752;28;103891;-64
2023/01/17 03:12:58;;;;;;;5.10;4.70;;;;;;;21.18;32.36;93654.34;6137183;28;103751;-64
2023/01/17 03:16:06;;;;;;;4.43;4.13;;;;;;;21.18;32.10;93611.78;6114390;28;104285;-64
2023/01/17 03:19:13;;;;;;;4.00;3.70;;;;;;;21.17;32.11;93582.81;6114123;28;104728;-65
2023/01/17 03:22:16;;;;;;;4.47;4.17;;;;;;;21.20;32.07;93630.06;6117528;28;104153;-66
2023/01/17 03:25:22;;;;;;;5.40;5.00;;;;;;;21.19;32.09;93629.28;6119523;28;104065;-64
2023/01/17 03:28:26;;;;;;;4.50;4.10;;;;;;;21.17;32.02;93626.19;6113802;28;103654;-64
2023/01/17 03:31:29;;;;;;;4.67;4.27;;;;;;;21.18;32.20;93632.28;6132293;28;103546;-64
2023/01/17 03:34:34;;;;;;;5.07;4.60;;;;;;;21.19;32.15;93620.53;6112843;28;103791;-64
2023/01/17 03:37:37;;;;;;;4.87;4.57;;;;;;;21.14;32.15;93620.72;6114516;28;106312;-65
2023/01/17 03:40:40;;;;;;;4.60;4.30;;;;;;;21.15;32.40;93617.75;6136329;28;103739;-66
2023/01/17 03:43:46;;;;;;;4.30;4.00;;;;;;;21.16;31.96;93651.19;6117122;28;104777;-64
2023/01/17 03:46:51;;;;;;;5.00;4.60;;;;;;;21.19;32.24;93644.47;6136949;28;103675;-64
2023/01/17 03:49:56;;;;;;;4.50;4.20;;;;;;;21.18;31.86;93632.28;6127679;28;104763;-64
2023/01/17 03:53:01;;;;;;;4.80;4.40;;;;;;;21.18;31.66;93661.53;6113257;28;105045;-64
2023/01/17 03:56:05;;;;;;;4.53;4.23;;;;;;;21.08;32.29;93646.78;6112787;28;103389;-64
2023/01/17 03:59:15;;;;;;;4.00;3.70;;;;;;;21.17;32.33;93658.09;6132182;28;103724;-65
2023/01/17 04:02:18;;;;;;;4.17;3.87;;;;;;;21.17;32.21;93636.03;6131364;28;103722;-63
2023/01/17 04:05:26;;;;;;;4.50;4.20;;;;;;;21.17;31.93;93651.97;6116516;28;103759;-65
2023/01/17 04:08:29;;;;;;;4.40;4.10;;;;;;;21.16;32.09;93640.56;6110664;28;103811;-66
2023/01/17 04:11:34;;;;;;;4.67;4.30;;;;;;;21.19;32.01;93649.78;6119513;28;104306;-64
2023/01/17 04:14:37;;;;;;;4.40;4.10;;;;;;;21.17;32.17;93654.63;6131899;28;103743;-65
2023/01/17 04:17:41;;;;;;;4.67;4.27;;;;;;;21.18;32.30;93664.19;6112823;28;103658;-64
2023/01/17 04:20:46;;;;;;;4.10;3.80;;;;;;;21.19;32.24;93665.75;6117163;28;103634;-65
2023/01/17 04:23:49;;;;;;;4.20;3.90;;;;;;;21.18;32.19;93672.97;6099230;28;104303;-66
2023/01/17 04:26:52;;;;;;;4.27;3.93;;;;;;;21.18;32.01;93690.81;6118612;28;104332;-64
2023/01/17 04:29:55;;;;;;;5.40;5.00;;;;;;;21.22;32.66;93675.72;6096708;28;104255;-68
2023/01/17 04:32:59;;;;;;;5.90;5.50;;;;;;;21.25;33.16;93659.09;6129451;28;103968;-65
2023/01/17 04:36:03;;;;;;;7.67;7.10;;;;;;;21.25;33.67;93653.75;6109799;28;103867;-64
2023/01/17 04:39:07;;;;;;;10.10;7.50;;;;;;;21.22;33.82;93691.69;6114143;28;103700;-65
2023/01/17 04:42:10;;;;;;;7.27;6.60;;;;;;;21.25;34.32;93680.38;6114106;28;104161;-63
2023/01/17 04:45:14;;;;;;;7.83;7.13;;;;;;;21.26;34.01;93694.44;6104948;28;103659;-64
2023/01/17 04:48:17;;;;;;;7.13;6.63;;;;;;;21.25;34.19;93676.94;6111220;28;103948;-65
2023/01/17 04:51:22;;;;;;;8.27;6.90;;;;;;;21.21;34.19;93706.09;6112434;28;103994;-60
2023/01/17 04:54:25;;;;;;;7.40;6.77;;;;;;;21.19;34.49;93668.41;6117321;28;103792;-61
2023/01/17 04:57:31;;;;;;;7.20;6.70;;;;;;;21.25;34.51;93693.66;6104441;28;104117;-62
2023/01/17 05:00:38;;;;;;;7.50;6.87;;;;;;;21.28;35.18;93698.31;6118737;28;103865;-61
2023/01/17 05:03:41;;;;;;;6.80;6.20;;;;;;;21.22;35.23;93710.31;6110613;28;104824;-61
2023/01/17 05:06:45;;;;;;;6.60;6.10;;;;;;;21.24;34.89;93742.66;6111926;28;103708;-61
2023/01/17 05:09:48;;;;;;;8.50;7.13;;;;;;;21.33;36.12;93719.38;6102183;28;104069;-60
2023/01/17 05:12:55;;;;;;;8.70;6.30;;;;;;;21.32;35.87;93704.53;6112080;28;104892;-61
2023/01/17 05:16:00;;;;;;;6.37;5.87;;;;;;;21.45;37.26;93719.38;6114211;28;104664;-61
2023/01/17 05:19:03;;;;;;;7.37;6.67;;;;;;;21.38;37.74;93727.16;6133643;28;103600;-61
2023/01/17 05:22:14;;;;;;;7.23;6.73;;;;;;;21.33;36.93;93699.97;6135522;28;103762;-62
2023/01/17 05:25:17;;;;;;;6.50;5.90;;;;;;;21.29;36.56;93742.44;6140149;28;104370;-62
2023/01/17 05:28:22;;;;;;;6.80;6.20;;;;;;;21.29;36.25;93715.06;6141039;28;104787;-61
2023/01/17 05:31:28;;;;;;;6.50;6.00;;;;;;;21.25;36.45;93717.63;6132172;28;104775;-60
2023/01/17 05:34:31;;;;;;;6.70;6.10;;;;;;;21.25;36.35;93706.97;6139807;28;104905;-61
2023/01/17 05:37:39;;;;;;;7.20;6.60;;;;;;;21.21;36.69;93708.75;6139430;28;104822;-61
2023/01/17 05:40:45;;;;;;;7.13;6.53;;;;;;;21.21;36.41;93722.06;6138496;28;104827;-62
2023/01/17 05:43:50;;;;;;;7.30;6.60;;;;;;;21.23;36.30;93711.06;6128294;28;103634;-62
2023/01/17 05:46:54;;;;;;;7.00;6.33;;;;;;;21.24;36.21;93699.31;6138263;28;104883;-63
2023/01/17 05:49:57;;;;;;;6.97;6.47;;;;;;;21.27;36.23;93720.72;6139416;28;104835;-60
2023/01/17 05:53:03;;;;;;;6.83;6.33;;;;;;;21.25;36.42;93698.22;6136419;28;103874;-61
2023/01/17 05:56:06;;;;;;;7.63;7.03;;;;;;;21.18;36.47;93690.81;6134795;28;103352;-62
2023/01/17 05:59:12;;;;;;;8.20;7.60;;;;;;;21.20;36.08;93673.41;6139760;28;103617;-62
2023/01/17 06:02:16;;;;;;;8.10;7.50;;;;;;;21.20;36.03;93627.41;6139184;28;103638;-63
2023/01/17 06:05:22;;;;;;;9.27;8.47;;;;;;;21.14;36.15;93626.81;6121156;28;104698;-62
2023/01/17 06:08:26;;;;;;;9.57;8.77;;;;;;;21.27;35.94;93654.19;6114703;28;104409;-61
2023/01/17 06:11:29;;;;;;;9.07;8.27;;;;;;;21.26;36.11;93631.38;6118226;28;104013;-62
2023/01/17 06:14:32;;;;;;;10.43;9.43;;;;;;;21.31;36.34;93641.00;6114266;28;103665;-63
2023/01/17 06:17:40;;;;;;;9.90;9.00;;;;;;;21.32;36.13;93647.88;6105143;28;103699;-62
2023/01/17 06:20:45;;;;;;;9.37;8.37;;;;;;;21.29;36.16;93646.66;6115236;28;104785;-62
2023/01/17 06:23:50;;;;;;;10.23;9.20;;;;;;;21.32;36.55;93661.94;6114989;28;103828;-61
2023/01/17 06:26:53;;;;;;;10.53;9.53;;;;;;;21.31;36.26;93631.13;6109956;28;103200;-61
2023/01/17 06:29:56;;;;;;;9.67;8.83;;;;;;;21.34;36.50;93619.84;6108079;28;103690;-62
2023/01/17 06:33:02;;;;;;;11.17;10.17;;;;;;;21.38;37.16;93642.00;6112587;28;103805;-62
2023/01/17 06:36:06;;;;;;;11.10;10.00;;;;;;;21.39;37.06;93640.13;6132658;28;104028;-60
2023/01/17 06:39:11;;;;;;;12.03;10.90;;;;;;;21.41;37.08;93657.28;6126357;28;104658;-60
2023/01/17 06:42:16;;;;;;;11.63;10.63;;;;;;;21.41;37.20;93659.97;6114056;28;103768;-61
2023/01/17 06:45:20;;;;;;;11.37;10.37;;;;;;;21.29;37.14;93654.63;6111969;28;103783;-61
2023/01/17 06:48:25;;;;;;;11.47;10.37;;;;;;;21.40;37.28;93684.25;6113938;28;103751;-61
2023/01/17 06:51:28;;;;;;;12.27;11.07;;;;;;;21.42;37.35;93685.47;6102499;28;103756;-61
2023/01/17 06:54:35;;;;;;;11.97;10.87;;;;;;;21.41;37.62;93678.59;6105282;28;103682;-62
2023/01/17 06:57:41;;;;;;;11.20;10.10;;;;;;;21.45;37.39;93684.00;6113079;28;104733;-61
2023/01/17 07:00:44;;;;;;;11.57;10.53;;;;;;;21.52;38.98;93708.19;6119264;28;103564;-62
2023/01/17 07:03:49;;;;;;;11.93;10.80;;;;;;;21.51;38.27;93704.75;6122794;28;104743;-61
2023/01/17 07:06:52;;;;;;;10.93;9.83;;;;;;;21.54;38.84;93705.19;6129789;28;103679;-62
2023/01/17 07:09:56;;;;;;;10.23;9.23;;;;;;;21.47;38.84;93705.75;6120168;28;103986;-61
2023/01/17 07:12:59;;;;;;;11.00;9.90;;;;;;;21.46;39.61;93699.63;6102966;28;104415;-63
2023/01/17 07:16:03;;;;;;;11.33;10.33;;;;;;;21.54;39.45;93694.56;6112796;28;103714;-60
2023/01/17 07:19:08;;;;;;;10.70;9.60;;;;;;;21.56;39.14;93710.97;6126061;28;103718;-62
2023/01/17 07:22:12;;;;;;;10.13;9.13;;;;;;;21.56;38.95;93697.66;6114124;28;103683;-62
2023/01/17 07:25:18;;;;;;;9.87;8.97;;;;;;;21.51;39.03;93688.78;6101796;28;103075;-62
2023/01/17 07:28:25;;;;;;;10.20;9.20;;;;;;;21.49;38.82;93728.25;6132135;28;104503;-61
2023/01/17 07:31:28;;;;;;;10.77;9.67;;;;;;;21.49;39.03;93712.28;6129362;28;103863;-60
2023/01/17 07:34:31;;;;;;;10.33;9.40;;;;;;;21.46;38.79;93704.97;6118832;28;103683;-62
2023/01/17 07:37:34;;;;;;;9.00;8.20;;;;;;;21.44;39.01;93736.47;6105530;28;103858;-61
2023/01/17 07:40:38;;;;;;;10.20;9.30;;;;;;;21.43;38.73;93708.28;6111548;28;103741;-62
2023/01/17 07:43:44;;;;;;;9.50;8.60;;;;;;;21.42;38.51;93704.09;6097066;28;103868;-60
2023/01/17 07:46:47;;;;;;;9.60;8.77;;;;;;;21.50;38.61;93732.47;6111978;28;104909;-62
2023/01/17 07:49:50;;;;;;;9.67;8.67;;;;;;;21.54;39.50;93723.81;6108184;28;104848;-62
2023/01/17 07:52:55;;;;;;;9.80;8.50;;;;;;;21.58;40.01;93714.06;6123669;28;103973;-63
2023/01/17 07:56:07;;;;;;;8.60;7.80;;;;;;;21.60;39.22;93711.84;6117305;28;104361;-60
2023/01/17 07:59:11;;;;;;;9.33;8.53;;;;;;;21.61;39.43;93718.72;6101272;28;104025;-62
2023/01/17 08:02:17;;;;;;;9.33;8.33;;;;;;;21.56;38.62;93710.97;6111945;28;103959;-61
2023/01/17 08:05:20;;;;;;;8.83;8.03;;;;;;;21.51;38.69;93703.97;6111347;28;104536;-61
2023/01/17 08:08:23;;;;;;;8.70;8.00;;;;;;;21.45;38.66;93695.44;6112683;28;104287;-61
2023/01/17 08:11:28;;;;;;;8.80;7.90;;;;;;;21.47;38.83;93714.50;6101247;28;104076;-67
2023/01/17 08:14:31;;;;;;;8.57;7.70;;;;;;;21.49;38.54;93722.16;6111033;28;103682;-61
2023/01/17 08:17:36;;;;;;;8.50;7.70;;;;;;;21.52;38.17;93716.94;6111774;28;103273;-60
2023/01/17 08:20:39;;;;;;;8.67;7.87;;;;;;;21.57;38.74;93731.13;6111113;28;105174;-60
2023/01/17 08:23:42;;;;;;;8.70;7.90;;;;;;;21.58;38.40;93749.44;6111831;28;103854;-60
2023/01/17 08:26:46;;;;;;;8.83;8.03;;;;;;;21.64;39.43;93752.66;6118640;28;104839;-62
2023/01/17 08:29:50;;;;;;;8.00;7.30;;;;;;;21.62;39.02;93728.25;6117012;28;103594;-61
2023/01/17 08:32:54;;;;;;;9.10;7.70;;;;;;;21.64;38.98;93728.69;6100424;28;103677;-61
2023/01/17 08:35:57;;;;;;;8.13;7.40;;;;;;;21.64;38.52;93734.00;6122141;28;104947;-60
2023/01/17 08:39:00;;;;;;;8.10;7.30;;;;;;;21.63;38.51;93780.38;6112441;28;104670;-60
2023/01/17 08:42:05;;;;;;;8.63;7.83;;;;;;;21.62;38.51;93779.59;6112376;28;105361;-61
2023/01/17 08:45:10;;;;;;;9.20;7.47;;;;;;;21.62;37.92;93750.31;6100611;28;104851;-63
2023/01/17 08:48:13;;;;;;;9.70;7.20;;;;;;;21.62;38.45;93763.63;6123317;28;103850;-62
2023/01/17 08:51:16;;;;;;;7.80;7.20;;;;;;;21.62;38.73;93768.19;6111061;28;104896;-60
2023/01/17 08:54:21;;;;;;;7.87;7.13;;;;;;;21.58;38.46;93748.66;6115478;28;104888;-60
2023/01/17 08:57:25;;;;;;;7.37;6.67;;;;;;;21.50;38.48;93745.00;6105910;28;105126;-62
2023/01/17 09:00:28;;;;;;;8.80;8.00;;;;;;;21.48;38.16;93747.22;6115780;28;103744;-62
2023/01/17 09:03:33;;;;;;;6.90;6.30;;;;;;;21.43;38.06;93732.25;6116701;28;104027;-62
2023/01/17 09:06:37;;;;;;;7.30;6.70;;;;;;;21.38;37.79;93719.19;6108505;28;104773;-62
2023/01/17 09:09:42;;;;;;;6.77;6.17;;;;;;;21.52;38.10;93735.59;6116090;28;103656;-62
2023/01/17 09:12:48;;;;;;;7.83;7.13;;;;;;;21.55;37.54;93738.69;6116736;28;103690;-62
2023/01/17 09:15:55;;;;;;;7.00;6.30;;;;;;;21.49;37.79;93738.13;6116529;28;104668;-61
2023/01/17 09:19:00;;;;;;;6.90;6.30;;;;;;;21.47;37.56;93757.09;6106248;28;104825;-62
2023/01/17 09:22:05;;;;;;;6.50;6.00;;;;;;;21.44;37.63;93747.09;6116321;28;104646;-61
2023/01/17 09:25:09;;;;;;;6.37;5.87;;;;;;;21.44;37.67;93749.78;6116451;28;103598;-61
2023/01/17 09:28:13;;;;;;;7.37;6.67;;;;;;;21.43;37.90;93750.09;6115989;28;103878;-62
2023/01/17 09:31:19;;;;;;;7.17;6.53;;;;;;;21.43;37.75;93747.44;6106453;28;104699;-63
2023/01/17 09:34:23;;;;;;;6.60;6.07;;;;;;;21.40;37.61;93719.63;6115952;28;103860;-60
2023/01/17 09:37:26;;;;;;;6.50;5.90;;;;;;;21.40;37.66;93724.16;6115692;28;103868;-62
2023/01/17 09:40:32;;;;;;;6.00;5.50;;;;;;;21.46;37.08;93731.56;6110282;28;103803;-61
2023/01/17 09:43:45;;;;;;;6.40;5.90;;;;;;;21.48;37.15;93728.59;6112526;28;103648;-61
2023/01/17 09:46:50;;;;;;;6.60;5.90;;;;;;;21.50;37.36;93692.53;6116195;28;104973;-62
2023/01/17 09:49:57;;;;;;;6.33;5.73;;;;;;;21.49;37.31;93679.56;6114532;28;104456;-63
2023/01/17 09:53:04;;;;;;;5.87;5.37;;;;;;;21.46;37.58;93680.25;6105491;28;103728;-61
2023/01/17 09:56:14;;;;;;;6.03;5.53;;;;;;;21.45;37.09;93682.13;6115437;28;103724;-63
2023/01/17 09:59:28;;;;;;;6.13;5.50;;;;;;;21.44;37.18;93709.06;6115129;28;104203;-62
2023/01/17 10:02:50;;;;;;;5.90;5.40;;;;;;;21.43;37.38;93718.16;6114894;28;103929;-64
2023/01/17 10:06:16;;;;;;;10.53;6.37;;;;;;;21.36;37.20;93718.72;6108292;28;103646;-64
2023/01/17 10:09:44;;;;;;;5.80;5.40;;;;;;;21.41;36.71;93739.78;6115600;28;104781;-61
2023/01/17 10:12:55;;;;;;;5.40;4.93;;;;;;;21.41;37.28;93734.47;6115908;28;104292;-61
2023/01/17 10:16:23;;;;;;;5.27;4.77;;;;;;;21.37;37.01;93690.25;6105945;28;104576;-62
2023/01/17 10:19:49;;;;;;;6.17;5.57;;;;;;;21.53;37.20;93717.72;6115398;28;103719;-63
2023/01/17 10:23:07;;;;;;;5.60;5.10;;;;;;;21.55;37.17;93714.72;6114608;28;104874;-60
2023/01/17 10:26:14;;;;;;;5.10;4.60;;;;;;;21.57;37.27;93707.19;6105617;28;103783;-63
2023/01/17 10:29:20;;;;;;;5.20;4.67;;;;;;;21.38;37.01;93689.13;6114277;28;103927;-61
2023/01/17 10:32:29;;;;;;;6.23;4.80;;;;;;;21.47;37.15;93717.16;6115061;28;103835;-61
2023/01/17 10:35:38;;;;;;;5.07;4.57;;;;;;;21.47;36.93;93713.72;6115565;28;105343;-61
2023/01/17 10:38:46;;;;;;;5.17;4.77;;;;;;;21.46;37.03;93706.84;6104387;28;103891;-61
2023/01/17 10:41:55;;;;;;;5.50;5.00;;;;;;;21.46;36.75;93707.63;6115238;28;104690;-61
2023/01/17 10:45:05;;;;;;;4.37;3.97;;;;;;;21.45;36.53;93715.94;6114957;28;103624;-61
2023/01/17 10:48:19;;;;;;;4.53;4.13;;;;;;;21.45;36.44;93730.03;6111176;28;104742;-64
2023/01/17 10:51:49;;;;;;;4.40;4.00;;;;;;;21.40;36.44;93679.69;6108989;28;104568;-61
2023/01/17 10:55:10;;;;;;;4.80;4.40;;;;;;;21.45;36.49;93705.31;6113893;28;103392;-64
2023/01/17 10:58:14;;;;;;;4.07;3.77;;;;;;;21.45;36.08;93713.28;6113188;28;103901;-61
2023/01/17 11:01:20;;;;;;;4.77;4.37;;;;;;;21.42;36.31;93717.41;6103773;28;103726;-61
2023/01/17 11:04:32;;;;;;;5.13;4.10;;;;;;;21.46;36.14;93723.59;6114377;28;103592;-61
2023/01/17 11:07:36;;;;;;;4.60;4.20;;;;;;;21.46;36.21;93707.63;6116867;28;103748;-62
2023/01/17 11:10:44;;;;;;;4.47;4.07;;;;;;;21.45;36.38;93714.06;6108056;28;103790;-62
2023/01/17 11:13:49;;;;;;;4.40;4.00;;;;;;;21.47;36.06;93719.81;6104520;28;104670;-62
2023/01/17 11:17:01;;;;;;;4.00;3.70;;;;;;;21.46;36.09;93704.97;6115066;28;104612;-61
2023/01/17 11:20:18;;;;;;;4.07;3.67;;;;;;;21.48;36.15;93700.09;6112628;28;104811;-62
2023/01/17 11:23:25;;;;;;;4.47;4.07;;;;;;;21.49;36.44;93695.53;6107630;28;103828;-62
2023/01/17 11:26:37;;;;;;;4.80;4.00;;;;;;;21.48;36.41;93694.75;6117123;28;103655;-62
2023/01/17 11:29:40;;;;;;;3.80;3.50;;;;;;;21.50;35.90;93665.91;6117912;28;103865;-61
2023/01/17 11:32:52;;;;;;;5.50;5.00;;;;;;;21.52;36.03;93663.72;6105253;28;104766;-61
2023/01/17 11:35:57;;;;;;;65.10;59.63;;;;;;;21.57;36.83;93653.94;6116664;28;104146;-61
2023/01/17 11:39:02;;;;;;;130.90;120.30;;;;;;;21.58;37.18;93653.59;6122332;28;104844;-61
2023/01/17 11:42:32;;;;;;;191.43;175.67;;;;;;;21.61;37.91;93665.47;6105460;28;103717;-62
2023/01/17 11:45:38;;;;;;;226.07;208.47;;;;;;;21.61;38.32;93654.81;6097512;28;103764;-62
2023/01/17 11:48:48;;;;;;;222.30;204.90;;;;;;;21.62;38.51;93637.72;6115261;28;103758;-61
2023/01/17 11:51:55;;;;;;;205.73;189.07;;;;;;;21.62;38.10;93621.75;6121481;28;104205;-61
2023/01/17 11:54:59;;;;;;;205.00;188.67;;;;;;;21.60;38.58;93616.78;6117181;28;106208;-60
2023/01/17 11:58:02;;;;;;;189.07;173.80;;;;;;;21.59;38.17;93609.13;6116579;28;103969;-61
2023/01/17 12:01:21;;;;;;;184.70;169.73;;;;;;;21.61;37.79;93606.91;6131210;28;104900;-60
2023/01/17 12:04:27;;;;;;;176.87;162.33;;;;;;;21.60;38.27;93590.16;6114557;28;105911;-62
2023/01/17 12:07:42;;;;;;;183.27;168.37;;;;;;;21.62;38.55;93592.47;6116120;28;104661;-65
2023/01/17 12:10:55;;;;;;;164.60;151.60;;;;;;;21.65;38.31;93591.81;6108105;28;104519;-64
2023/01/17 12:14:09;;;;;;;154.13;141.63;;;;;;;21.64;38.32;93603.56;6123398;28;104817;-63
2023/01/17 12:17:27;;;;;;;145.80;134.40;;;;;;;21.72;38.05;93581.38;6132384;28;104483;-63
2023/01/17 12:20:41;;;;;;;138.77;127.77;;;;;;;21.75;38.26;93575.34;6105300;28;103933;-63
2023/01/17 12:24:09;;;;;;;126.27;116.53;;;;;;;21.62;38.36;93534.69;6116058;28;103752;-65
2023/01/17 12:27:21;;;;;;;120.20;110.50;;;;;;;21.79;38.45;93560.25;6124145;28;104058;-64
2023/01/17 12:30:42;;;;;;;113.47;104.57;;;;;;;21.78;38.15;93561.34;6099876;28;103772;-63
2023/01/17 12:33:53;;;;;;;102.30;94.07;;;;;;;21.83;38.44;93547.06;6106460;28;105728;-64
2023/01/17 12:37:02;;;;;;;98.70;90.90;;;;;;;21.83;38.14;93550.50;6134717;28;103945;-64
2023/01/17 12:40:21;;;;;;;92.70;85.43;;;;;;;21.87;38.85;93561.25;6111671;28;103633;-64
2023/01/17 12:43:29;;;;;;;82.23;75.53;;;;;;;21.85;38.31;93566.94;6107483;28;104056;-64
2023/01/17 12:46:41;;;;;;;83.93;77.33;;;;;;;21.85;38.42;93556.28;6121791;28;104688;-63
2023/01/17 12:49:56;;;;;;;75.97;69.97;;;;;;;21.71;38.22;93530.00;6115068;28;103738;-63
2023/01/17 12:53:05;;;;;;;72.07;66.20;;;;;;;21.86;38.54;93536.50;6111772;28;103841;-63
2023/01/17 12:56:18;;;;;;;66.20;60.70;;;;;;;21.86;38.35;93533.84;6100487;28;104771;-64
2023/01/17 12:59:29;;;;;;;64.67;59.10;;;;;;;21.86;38.47;93527.75;6103525;28;104103;-64
2023/01/17 13:02:37;;;;;;;62.67;57.53;;;;;;;21.86;38.59;93528.53;6110529;28;104986;-64
2023/01/17 13:05:45;;;;;;;58.00;53.40;;;;;;;21.86;38.87;93552.50;6102600;28;103767;-65
2023/01/17 13:08:53;;;;;;;55.70;51.17;;;;;;;21.84;38.81;93562.69;6120668;28;103953;-62
2023/01/17 13:12:03;;;;;;;53.73;49.53;;;;;;;21.84;38.82;93554.69;6121201;28;104024;-65
2023/01/17 13:15:14;;;;;;;51.57;47.43;;;;;;;21.83;38.61;93561.13;6110950;28;103921;-64
2023/01/17 13:18:24;;;;;;;49.93;45.67;;;;;;;21.83;38.83;93550.50;6101179;28;103806;-65
2023/01/17 13:21:31;;;;;;;46.97;43.17;;;;;;;21.85;38.74;93544.84;6112501;28;103779;-62
2023/01/17 13:24:44;;;;;;;46.27;42.40;;;;;;;21.80;38.72;93551.91;6111783;28;103857;-63
2023/01/17 13:28:03;;;;;;;42.90;39.50;;;;;;;21.83;38.65;93550.50;6125383;28;104461;-65
2023/01/17 13:31:27;;;;;;;41.00;37.63;;;;;;;21.83;38.68;93555.81;6107126;28;104714;-63
2023/01/17 13:34:52;;;;;;;38.80;35.70;;;;;;;21.84;38.39;93559.25;6110445;28;104749;-65
2023/01/17 13:38:15;;;;;;;36.13;33.30;;;;;;;21.83;38.28;93566.47;6112910;28;104353;-64
2023/01/17 13:41:36;;;;;;;35.20;32.50;;;;;;;21.84;38.22;93573.34;6117343;28;103391;-65
2023/01/17 13:44:41;;;;;;;34.03;31.20;;;;;;;21.83;38.75;93569.13;6139385;28;103815;-65
2023/01/17 13:47:44;;;;;;;32.50;30.00;;;;;;;21.82;39.10;93567.59;6138198;28;103817;-66
2023/01/17 13:50:51;;;;;;;31.37;28.70;;;;;;;21.83;38.79;93590.44;6086178;28;104794;-65
2023/01/17 13:53:56;;;;;;;29.63;27.33;;;;;;;21.81;38.83;93558.00;6099650;28;103556;-66
2023/01/17 13:57:31;;;;;;;28.63;26.30;;;;;;;21.81;38.74;93574.75;6113991;28;103817;-65
2023/01/17 14:00:53;;;;;;;28.33;26.10;;;;;;;21.83;39.09;93605.63;6115603;28;103614;-65
2023/01/17 14:04:05;;;;;;;26.90;24.90;;;;;;;21.83;38.70;93608.28;6105597;28;103601;-65
2023/01/17 14:07:25;;;;;;;25.53;23.57;;;;;;;21.78;38.95;93585.31;6114042;28;103757;-66
2023/01/17 14:10:33;;;;;;;24.33;22.43;;;;;;;21.84;39.13;93604.53;6118071;28;103825;-65
2023/01/17 14:13:37;;;;;;;23.03;21.23;;;;;;;21.84;38.89;93613.28;6127646;28;103776;-66
2023/01/17 14:16:42;;;;;;;22.43;20.60;;;;;;;21.83;38.83;93606.41;6124906;28;103890;-65
2023/01/17 14:19:50;;;;;;;22.37;20.63;;;;;;;21.85;39.32;93617.53;6124584;28;103756;-65
2023/01/17 14:22:57;;;;;;;22.27;20.37;;;;;;;21.86;39.69;93589.78;6123034;28;105891;-65
2023/01/17 14:26:19;;;;;;;21.60;20.00;;;;;;;21.86;39.32;93578.34;6109800;28;104859;-66
2023/01/17 14:29:53;;;;;;;19.33;17.83;;;;;;;21.89;39.67;93591.75;6128944;28;104911;-65
2023/01/17 14:33:19;;;;;;;20.30;18.70;;;;;;;21.86;39.77;93611.06;6111166;28;103738;-64
2023/01/17 14:36:25;;;;;;;19.63;18.03;;;;;;;21.84;39.63;93607.97;6103573;28;103873;-65
2023/01/17 14:39:28;;;;;;;17.93;16.63;;;;;;;21.85;39.45;93590.13;6122261;28;104834;-65
2023/01/17 14:42:33;;;;;;;17.87;16.47;;;;;;;21.86;40.00;93597.00;6135000;28;103813;-65
2023/01/17 14:45:37;;;;;;;16.23;15.03;;;;;;;21.81;39.30;93574.75;6139100;28;105194;-63
2023/01/17 14:48:46;;;;;;;16.30;15.00;;;;;;;21.81;39.29;93579.31;6109020;28;104964;-66
2023/01/17 14:51:59;;;;;;;14.07;12.97;;;;;;;21.81;39.14;93584.66;6112703;28;103796;-66
2023/01/17 14:55:14;;;;;;;14.07;13.07;;;;;;;21.79;39.42;93592.19;6095380;28;103880;-67
2023/01/17 14:58:29;;;;;;;13.97;12.77;;;;;;;21.78;38.99;93580.78;6111393;28;103770;-67
2023/01/17 15:01:34;;;;;;;12.77;11.77;;;;;;;21.80;39.58;93628.38;6105121;28;104130;-66
2023/01/17 15:04:39;;;;;;;11.13;10.20;;;;;;;21.79;41.97;93570.91;6113358;28;104450;-64
2023/01/17 15:07:45;;;;;;;9.80;9.07;;;;;;;21.90;41.18;93613.84;6117598;28;104976;-67
2023/01/17 15:10:54;;;;;;;10.03;9.13;;;;;;;21.89;40.92;93575.00;6101057;28;105198;-66
2023/01/17 15:14:05;;;;;;;9.63;8.83;;;;;;;21.98;40.87;93611.00;6119180;28;104725;-65
2023/01/17 15:17:17;;;;;;;10.03;9.17;;;;;;;21.97;41.47;93579.38;6112745;28;103928;-68
2023/01/17 15:20:21;;;;;;;10.83;10.03;;;;;;;21.98;42.32;93618.22;6110946;28;103704;-67
2023/01/17 15:23:30;;;;;;;11.93;11.03;;;;;;;21.95;43.51;93609.03;6102826;28;103938;-66
2023/01/17 15:26:41;;;;;;;12.37;11.30;;;;;;;21.95;44.54;93616.25;6113031;28;103446;-65
2023/01/17 15:29:46;;;;;;;10.30;9.40;;;;;;;21.91;42.24;93621.47;6102943;28;105649;-71
2023/01/17 15:32:50;;;;;;;9.80;8.90;;;;;;;21.85;41.64;93622.84;6114341;28;103801;-63
2023/01/17 15:36:01;;;;;;;15.70;14.50;;;;;;;21.91;48.37;93621.47;6108112;28;103482;-66
2023/01/17 15:39:06;;;;;;;25.83;23.67;;;;;;;21.94;50.39;93614.69;6119402;28;104861;-66
2023/01/17 15:42:22;;;;;;;34.23;31.20;;;;;;;22.00;51.90;93616.00;6118681;28;103673;-65
2023/01/17 15:45:29;;;;;;;29.70;27.10;;;;;;;22.09;50.75;93612.06;6107596;28;107858;-66
2023/01/17 15:48:38;;;;;;;29.43;26.83;;;;;;;22.12;50.05;93594.63;6115559;28;104842;-64
2023/01/17 15:51:49;;;;;;;27.83;25.23;;;;;;;22.15;49.49;93593.94;6126132;28;103384;-65